Alder, Montana
Current Conditions -  °F | °C
As of 10:53 PM on Saturday 22 Nov 2014 (Local Time) from KDLN Reporting Station
Overcast Overcast  
Wind Chill: 22°   Ceiling: 6000
Heat Index: 30°   Visibility: 10mi
Dew Point: 21°   Wind: 9mph
Humidity: 69%   Direction: 200°SSW
Pressure: 29.77"   Gusts: NA
Location:  45.32°N, 112.11°W
Report Text: KDLN 230553Z AUTO 20008KT 10SM OVC060 M01/M06 A2977 RMK AO2 SLP090 T10111061 10022 21044 53018
Loading
Personal Weather Stations






























Interactive Weather Map New forecast layout! Learn more

10-Day Weather Forecast

Advertisements
Track Severe Weather on mobile